sensor_id;sensor_type;location;lat;lon;timestamp;pressure;altitude;pressure_sealevel;temperature;humidity
59829;BME280;45708;51.848;107.620;2023-01-26T00:03:35;95797.88;;;-20.37;68.62
59829;BME280;45708;51.848;107.620;2023-01-26T00:08:37;95798.53;;;-20.22;68.58
59829;BME280;45708;51.848;107.620;2023-01-26T00:13:38;95799.22;;;-20.11;69.18
59829;BME280;45708;51.848;107.620;2023-01-26T00:18:40;95807.59;;;-20.09;69.31
59829;BME280;45708;51.848;107.620;2023-01-26T00:23:41;95817.59;;;-20.06;69.18
59829;BME280;45708;51.848;107.620;2023-01-26T00:28:42;95831.06;;;-20.10;68.51
59829;BME280;45708;51.848;107.620;2023-01-26T00:33:43;95827.06;;;-20.26;69.42
59829;BME280;45708;51.848;107.620;2023-01-26T00:38:45;95828.22;;;-20.52;69.29
59829;BME280;45708;51.848;107.620;2023-01-26T00:43:46;95837.56;;;-20.66;69.41
59829;BME280;45708;51.848;107.620;2023-01-26T00:48:46;95849.41;;;-20.76;69.31
59829;BME280;45708;51.848;107.620;2023-01-26T00:53:47;95848.56;;;-20.76;69.00
59829;BME280;45708;51.848;107.620;2023-01-26T00:58:48;95858.63;;;-20.82;69.15
59829;BME280;45708;51.848;107.620;2023-01-26T01:03:49;95862.03;;;-20.86;69.22
59829;BME280;45708;51.848;107.620;2023-01-26T01:08:50;95868.69;;;-20.82;69.09
59829;BME280;45708;51.848;107.620;2023-01-26T01:13:50;95878.66;;;-20.73;68.80
59829;BME280;45708;51.848;107.620;2023-01-26T01:18:52;95881.88;;;-20.62;68.72
59829;BME280;45708;51.848;107.620;2023-01-26T01:23:53;95892.72;;;-20.54;69.02
59829;BME280;45708;51.848;107.620;2023-01-26T01:28:54;95905.06;;;-20.36;68.25
59829;BME280;45708;51.848;107.620;2023-01-26T01:33:56;95894.97;;;-20.33;68.15
59829;BME280;45708;51.848;107.620;2023-01-26T01:38:57;95907.41;;;-20.20;68.38
59829;BME280;45708;51.848;107.620;2023-01-26T01:49:28;95920.63;;;-20.03;68.47
59829;BME280;45708;51.848;107.620;2023-01-26T01:59:38;95917.00;;;-19.79;67.93
59829;BME280;45708;51.848;107.620;2023-01-26T02:04:40;95931.03;;;-19.60;68.29
59829;BME280;45708;51.848;107.620;2023-01-26T02:09:42;95934.63;;;-19.18;68.04
59829;BME280;45708;51.848;107.620;2023-01-26T02:14:44;95921.03;;;-19.06;68.02
59829;BME280;45708;51.848;107.620;2023-01-26T02:25:24;95951.22;;;-18.51;67.72
59829;BME280;45708;51.848;107.620;2023-01-26T02:30:31;95930.31;;;-18.08;67.63
59829;BME280;45708;51.848;107.620;2023-01-26T02:35:32;95943.09;;;-17.72;67.02
59829;BME280;45708;51.848;107.620;2023-01-26T02:40:40;95931.84;;;-17.58;67.77
59829;BME280;45708;51.848;107.620;2023-01-26T02:45:42;95937.22;;;-17.33;67.15
59829;BME280;45708;51.848;107.620;2023-01-26T02:50:43;95940.03;;;-17.06;67.42
59829;BME280;45708;51.848;107.620;2023-01-26T02:55:44;95949.00;;;-16.93;67.31
59829;BME280;45708;51.848;107.620;2023-01-26T03:00:45;95946.59;;;-16.98;67.03
59829;BME280;45708;51.848;107.620;2023-01-26T03:05:46;95942.16;;;-17.27;67.08
59829;BME280;45708;51.848;107.620;2023-01-26T03:10:46;95950.22;;;-17.51;67.62
59829;BME280;45708;51.848;107.620;2023-01-26T03:15:49;95955.19;;;-17.46;67.57
59829;BME280;45708;51.848;107.620;2023-01-26T03:20:50;95949.91;;;-17.36;67.41
59829;BME280;45708;51.848;107.620;2023-01-26T03:25:50;95952.31;;;-17.30;66.01
59829;BME280;45708;51.848;107.620;2023-01-26T03:30:53;95963.03;;;-17.18;65.57
59829;BME280;45708;51.848;107.620;2023-01-26T03:35:54;95960.59;;;-17.21;65.01
59829;BME280;45708;51.848;107.620;2023-01-26T03:40:58;95963.53;;;-17.01;64.94
59829;BME280;45708;51.848;107.620;2023-01-26T03:46:05;95950.16;;;-16.69;63.71
59829;BME280;45708;51.848;107.620;2023-01-26T03:51:06;95949.31;;;-16.70;63.42
59829;BME280;45708;51.848;107.620;2023-01-26T03:56:09;95934.63;;;-16.55;63.66
59829;BME280;45708;51.848;107.620;2023-01-26T04:01:11;95943.72;;;-16.48;63.53
59829;BME280;45708;51.848;107.620;2023-01-26T04:06:12;95934.25;;;-16.39;64.28
59829;BME280;45708;51.848;107.620;2023-01-26T04:11:13;95926.81;;;-16.46;62.84
59829;BME280;45708;51.848;107.620;2023-01-26T04:16:14;95925.88;;;-16.42;63.30
59829;BME280;45708;51.848;107.620;2023-01-26T04:21:14;95922.31;;;-16.34;62.21
59829;BME280;45708;51.848;107.620;2023-01-26T04:26:15;95925.38;;;-16.22;62.62
59829;BME280;45708;51.848;107.620;2023-01-26T04:31:16;95926.00;;;-16.13;62.29
59829;BME280;45708;51.848;107.620;2023-01-26T04:36:17;95932.13;;;-16.21;62.49
59829;BME280;45708;51.848;107.620;2023-01-26T04:41:18;95932.81;;;-16.15;62.16
59829;BME280;45708;51.848;107.620;2023-01-26T04:46:19;95921.03;;;-16.16;62.70
59829;BME280;45708;51.848;107.620;2023-01-26T04:51:20;95937.03;;;-16.15;62.30
59829;BME280;45708;51.848;107.620;2023-01-26T04:56:33;95935.81;;;-16.35;62.57
59829;BME280;45708;51.848;107.620;2023-01-26T05:01:34;95927.03;;;-16.20;62.25
59829;BME280;45708;51.848;107.620;2023-01-26T05:06:36;95923.81;;;-15.94;61.88
59829;BME280;45708;51.848;107.620;2023-01-26T05:11:37;95922.09;;;-15.92;61.51
59829;BME280;45708;51.848;107.620;2023-01-26T05:16:37;95915.25;;;-15.88;62.17
59829;BME280;45708;51.848;107.620;2023-01-26T05:21:38;95909.84;;;-15.76;62.27
59829;BME280;45708;51.848;107.620;2023-01-26T05:26:39;95906.88;;;-15.59;60.89
59829;BME280;45708;51.848;107.620;2023-01-26T05:31:40;95910.13;;;-15.56;61.34
59829;BME280;45708;51.848;107.620;2023-01-26T05:36:41;95900.75;;;-15.83;60.20
59829;BME280;45708;51.848;107.620;2023-01-26T05:41:41;95904.09;;;-15.83;61.06
59829;BME280;45708;51.848;107.620;2023-01-26T05:46:42;95905.66;;;-15.48;60.38
59829;BME280;45708;51.848;107.620;2023-01-26T05:51:43;95903.56;;;-15.33;60.35
59829;BME280;45708;51.848;107.620;2023-01-26T05:56:44;95895.09;;;-15.32;61.27
59829;BME280;45708;51.848;107.620;2023-01-26T06:01:45;95903.81;;;-15.43;60.58
59829;BME280;45708;51.848;107.620;2023-01-26T06:06:45;95901.38;;;-15.46;60.65
59829;BME280;45708;51.848;107.620;2023-01-26T06:11:46;95900.34;;;-15.39;61.30
59829;BME280;45708;51.848;107.620;2023-01-26T06:16:48;95894.25;;;-15.33;60.59
59829;BME280;45708;51.848;107.620;2023-01-26T06:21:48;95880.94;;;-15.40;61.25
59829;BME280;45708;51.848;107.620;2023-01-26T06:26:49;95887.63;;;-15.37;60.86
59829;BME280;45708;51.848;107.620;2023-01-26T06:31:50;95874.81;;;-15.32;60.74
59829;BME280;45708;51.848;107.620;2023-01-26T06:36:53;95885.28;;;-15.15;61.27
59829;BME280;45708;51.848;107.620;2023-01-26T06:41:54;95885.16;;;-15.11;60.62
59829;BME280;45708;51.848;107.620;2023-01-26T06:46:55;95892.44;;;-15.00;61.08
59829;BME280;45708;51.848;107.620;2023-01-26T06:57:22;95906.63;;;-14.94;61.38
59829;BME280;45708;51.848;107.620;2023-01-26T07:02:22;95898.88;;;-14.90;60.72
59829;BME280;45708;51.848;107.620;2023-01-26T07:07:23;95902.09;;;-14.85;60.54
59829;BME280;45708;51.848;107.620;2023-01-26T07:12:24;95902.59;;;-15.00;61.84
59829;BME280;45708;51.848;107.620;2023-01-26T07:17:25;95910.09;;;-14.97;61.47
59829;BME280;45708;51.848;107.620;2023-01-26T07:22:26;95903.94;;;-14.90;61.59
59829;BME280;45708;51.848;107.620;2023-01-26T07:27:26;95914.19;;;-14.93;60.94
59829;BME280;45708;51.848;107.620;2023-01-26T07:32:27;95907.66;;;-15.01;60.81
59829;BME280;45708;51.848;107.620;2023-01-26T07:37:29;95908.34;;;-14.95;61.19
59829;BME280;45708;51.848;107.620;2023-01-26T07:42:30;95907.03;;;-15.08;61.64
59829;BME280;45708;51.848;107.620;2023-01-26T07:47:31;95913.34;;;-15.21;61.27
59829;BME280;45708;51.848;107.620;2023-01-26T07:52:32;95908.63;;;-15.33;61.26
59829;BME280;45708;51.848;107.620;2023-01-26T07:57:33;95908.00;;;-15.40;61.76
59829;BME280;45708;51.848;107.620;2023-01-26T08:02:33;95909.25;;;-15.55;61.85
59829;BME280;45708;51.848;107.620;2023-01-26T08:07:34;95904.44;;;-15.64;62.31
59829;BME280;45708;51.848;107.620;2023-01-26T08:12:35;95905.41;;;-15.68;61.84
59829;BME280;45708;51.848;107.620;2023-01-26T08:17:36;95903.00;;;-15.73;62.84
59829;BME280;45708;51.848;107.620;2023-01-26T08:22:37;95903.13;;;-15.77;62.65
59829;BME280;45708;51.848;107.620;2023-01-26T08:27:38;95904.88;;;-15.79;62.39
59829;BME280;45708;51.848;107.620;2023-01-26T08:32:38;95908.19;;;-15.77;62.75
59829;BME280;45708;51.848;107.620;2023-01-26T08:37:39;95917.28;;;-16.03;62.73
59829;BME280;45708;51.848;107.620;2023-01-26T08:42:40;95911.13;;;-16.25;62.95
59829;BME280;45708;51.848;107.620;2023-01-26T08:47:41;95903.13;;;-16.42;63.48
59829;BME280;45708;51.848;107.620;2023-01-26T08:52:42;95904.72;;;-16.38;63.81
59829;BME280;45708;51.848;107.620;2023-01-26T08:57:43;95906.50;;;-16.43;63.60
59829;BME280;45708;51.848;107.620;2023-01-26T09:02:44;95898.47;;;-16.57;63.68
59829;BME280;45708;51.848;107.620;2023-01-26T09:07:44;95894.53;;;-16.69;63.54
59829;BME280;45708;51.848;107.620;2023-01-26T09:12:45;95888.94;;;-16.82;63.94
59829;BME280;45708;51.848;107.620;2023-01-26T09:17:49;95897.69;;;-16.95;63.82
59829;BME280;45708;51.848;107.620;2023-01-26T09:22:50;95883.44;;;-16.98;64.07
59829;BME280;45708;51.848;107.620;2023-01-26T09:27:51;95887.53;;;-16.94;64.08
59829;BME280;45708;51.848;107.620;2023-01-26T09:32:52;95891.03;;;-16.99;63.95
59829;BME280;45708;51.848;107.620;2023-01-26T09:37:57;95890.50;;;-17.13;64.17
59829;BME280;45708;51.848;107.620;2023-01-26T09:43:07;95889.00;;;-17.20;64.29
59829;BME280;45708;51.848;107.620;2023-01-26T09:48:21;95888.56;;;-17.39;64.70
59829;BME280;45708;51.848;107.620;2023-01-26T09:53:40;95892.63;;;-17.72;64.35
59829;BME280;45708;51.848;107.620;2023-01-26T09:58:52;95900.78;;;-18.01;65.02
59829;BME280;45708;51.848;107.620;2023-01-26T10:04:34;95894.63;;;-18.33;65.57
59829;BME280;45708;51.848;107.620;2023-01-26T10:09:37;95901.75;;;-18.56;65.31
59829;BME280;45708;51.848;107.620;2023-01-26T10:14:50;95902.94;;;-18.75;65.54
59829;BME280;45708;51.848;107.620;2023-01-26T10:19:59;95890.72;;;-18.98;65.60
59829;BME280;45708;51.848;107.620;2023-01-26T10:25:01;95903.56;;;-19.17;65.51
59829;BME280;45708;51.848;107.620;2023-01-26T10:30:02;95892.81;;;-19.28;65.79
59829;BME280;45708;51.848;107.620;2023-01-26T10:35:03;95893.72;;;-19.32;65.51
59829;BME280;45708;51.848;107.620;2023-01-26T10:40:05;95893.22;;;-19.55;65.60
59829;BME280;45708;51.848;107.620;2023-01-26T10:45:30;95890.00;;;-19.66;66.02
59829;BME280;45708;51.848;107.620;2023-01-26T10:50:32;95894.28;;;-19.72;66.22
59829;BME280;45708;51.848;107.620;2023-01-26T10:55:33;95882.47;;;-19.66;65.75
59829;BME280;45708;51.848;107.620;2023-01-26T11:00:34;95882.53;;;-19.71;66.37
59829;BME280;45708;51.848;107.620;2023-01-26T11:05:35;95886.88;;;-19.85;65.91
59829;BME280;45708;51.848;107.620;2023-01-26T11:10:38;95892.94;;;-20.00;65.72
59829;BME280;45708;51.848;107.620;2023-01-26T11:15:50;95899.66;;;-20.02;66.54
59829;BME280;45708;51.848;107.620;2023-01-26T11:21:23;95892.84;;;-19.91;65.92
59829;BME280;45708;51.848;107.620;2023-01-26T11:26:45;95874.47;;;-19.96;66.18
59829;BME280;45708;51.848;107.620;2023-01-26T11:32:06;95878.78;;;-20.09;66.03
59829;BME280;45708;51.848;107.620;2023-01-26T11:37:38;95879.00;;;-20.27;65.95
59829;BME280;45708;51.848;107.620;2023-01-26T11:59:26;95866.47;;;-20.32;66.83
59829;BME280;45708;51.848;107.620;2023-01-26T12:04:31;95867.34;;;-20.34;66.46
59829;BME280;45708;51.848;107.620;2023-01-26T12:09:40;95870.00;;;-20.42;66.75
59829;BME280;45708;51.848;107.620;2023-01-26T12:20:50;95866.09;;;-20.73;66.93
59829;BME280;45708;51.848;107.620;2023-01-26T12:26:05;95857.72;;;-20.72;66.53
59829;BME280;45708;51.848;107.620;2023-01-26T12:31:34;95850.16;;;-20.69;66.70
59829;BME280;45708;51.848;107.620;2023-01-26T12:42:35;95837.69;;;-20.77;66.68
59829;BME280;45708;51.848;107.620;2023-01-26T12:47:45;95840.31;;;-20.90;66.81
59829;BME280;45708;51.848;107.620;2023-01-26T12:58:36;95830.22;;;-20.81;66.89
59829;BME280;45708;51.848;107.620;2023-01-26T13:03:42;95821.78;;;-20.77;67.38
59829;BME280;45708;51.848;107.620;2023-01-26T13:13:55;95826.81;;;-20.77;66.90
59829;BME280;45708;51.848;107.620;2023-01-26T13:18:57;95821.78;;;-20.77;66.97
59829;BME280;45708;51.848;107.620;2023-01-26T13:23:58;95825.22;;;-20.87;67.06
59829;BME280;45708;51.848;107.620;2023-01-26T13:34:45;95837.78;;;-20.87;67.32
59829;BME280;45708;51.848;107.620;2023-01-26T13:39:53;95849.59;;;-20.97;67.13
59829;BME280;45708;51.848;107.620;2023-01-26T13:45:14;95838.00;;;-21.12;67.13
59829;BME280;45708;51.848;107.620;2023-01-26T13:50:35;95844.69;;;-21.11;67.34
59829;BME280;45708;51.848;107.620;2023-01-26T13:55:37;95823.06;;;-21.24;67.21
59829;BME280;45708;51.848;107.620;2023-01-26T14:00:38;95819.00;;;-21.36;67.19
59829;BME280;45708;51.848;107.620;2023-01-26T14:05:39;95812.47;;;-21.57;67.10
59829;BME280;45708;51.848;107.620;2023-01-26T14:10:41;95810.81;;;-21.58;67.19
59829;BME280;45708;51.848;107.620;2023-01-26T14:15:42;95809.16;;;-21.65;67.25
59829;BME280;45708;51.848;107.620;2023-01-26T14:20:43;95819.22;;;-21.68;67.46
59829;BME280;45708;51.848;107.620;2023-01-26T14:25:58;95813.47;;;-21.85;67.37
59829;BME280;45708;51.848;107.620;2023-01-26T14:31:22;95822.69;;;-21.87;67.63
59829;BME280;45708;51.848;107.620;2023-01-26T14:36:26;95818.56;;;-21.94;67.70
59829;BME280;45708;51.848;107.620;2023-01-26T14:41:33;95809.38;;;-21.97;67.47
59829;BME280;45708;51.848;107.620;2023-01-26T14:47:15;95818.59;;;-22.02;67.61
59829;BME280;45708;51.848;107.620;2023-01-26T14:52:31;95819.47;;;-22.06;67.51
59829;BME280;45708;51.848;107.620;2023-01-26T14:57:33;95831.16;;;-22.08;67.40
59829;BME280;45708;51.848;107.620;2023-01-26T15:02:37;95832.78;;;-22.01;67.24
59829;BME280;45708;51.848;107.620;2023-01-26T15:07:47;95816.94;;;-22.04;67.44
59829;BME280;45708;51.848;107.620;2023-01-26T15:12:58;95819.41;;;-21.95;67.74
59829;BME280;45708;51.848;107.620;2023-01-26T15:18:04;95832.72;;;-21.90;67.22
59829;BME280;45708;51.848;107.620;2023-01-26T15:23:27;95820.22;;;-21.95;67.06
59829;BME280;45708;51.848;107.620;2023-01-26T15:28:30;95811.06;;;-22.03;67.51
59829;BME280;45708;51.848;107.620;2023-01-26T15:33:45;95827.75;;;-22.02;67.64
59829;BME280;45708;51.848;107.620;2023-01-26T15:38:46;95822.81;;;-22.08;67.66
59829;BME280;45708;51.848;107.620;2023-01-26T15:43:47;95820.38;;;-22.14;67.84
59829;BME280;45708;51.848;107.620;2023-01-26T15:48:48;95820.38;;;-22.19;67.19
59829;BME280;45708;51.848;107.620;2023-01-26T15:53:49;95819.63;;;-22.35;67.22
59829;BME280;45708;51.848;107.620;2023-01-26T15:58:49;95812.97;;;-22.45;67.76
59829;BME280;45708;51.848;107.620;2023-01-26T16:03:51;95817.13;;;-22.36;67.58
59829;BME280;45708;51.848;107.620;2023-01-26T16:08:55;95807.03;;;-22.21;67.77
59829;BME280;45708;51.848;107.620;2023-01-26T16:13:56;95797.78;;;-22.08;67.70
59829;BME280;45708;51.848;107.620;2023-01-26T16:18:57;95798.38;;;-21.74;67.61
59829;BME280;45708;51.848;107.620;2023-01-26T16:23:59;95797.22;;;-21.32;67.23
59829;BME280;45708;51.848;107.620;2023-01-26T16:29:00;95799.22;;;-20.80;67.29
59829;BME280;45708;51.848;107.620;2023-01-26T16:34:01;95787.75;;;-20.30;66.33
59829;BME280;45708;51.848;107.620;2023-01-26T16:39:01;95778.84;;;-19.90;66.42
59829;BME280;45708;51.848;107.620;2023-01-26T16:44:07;95779.09;;;-19.51;65.61
59829;BME280;45708;51.848;107.620;2023-01-26T16:49:12;95779.44;;;-19.22;65.20
59829;BME280;45708;51.848;107.620;2023-01-26T16:54:13;95779.34;;;-19.16;65.08
59829;BME280;45708;51.848;107.620;2023-01-26T16:59:13;95764.44;;;-19.28;65.25
59829;BME280;45708;51.848;107.620;2023-01-26T17:04:14;95773.78;;;-19.33;65.78
59829;BME280;45708;51.848;107.620;2023-01-26T17:09:15;95771.38;;;-19.42;65.79
59829;BME280;45708;51.848;107.620;2023-01-26T17:14:16;95763.25;;;-19.56;66.07
59829;BME280;45708;51.848;107.620;2023-01-26T17:19:16;95756.66;;;-19.63;66.42
59829;BME280;45708;51.848;107.620;2023-01-26T17:24:17;95765.91;;;-19.65;66.59
59829;BME280;45708;51.848;107.620;2023-01-26T17:29:18;95760.94;;;-19.70;66.23
59829;BME280;45708;51.848;107.620;2023-01-26T17:34:19;95768.47;;;-19.68;66.36
59829;BME280;45708;51.848;107.620;2023-01-26T17:39:20;95757.56;;;-19.67;66.41
59829;BME280;45708;51.848;107.620;2023-01-26T17:44:21;95756.63;;;-19.60;65.45
59829;BME280;45708;51.848;107.620;2023-01-26T17:49:22;95759.94;;;-19.58;65.12
59829;BME280;45708;51.848;107.620;2023-01-26T17:54:23;95748.13;;;-19.53;65.04
59829;BME280;45708;51.848;107.620;2023-01-26T17:59:24;95749.75;;;-19.52;64.62
59829;BME280;45708;51.848;107.620;2023-01-26T18:04:25;95743.16;;;-19.56;64.51
59829;BME280;45708;51.848;107.620;2023-01-26T18:09:25;95749.19;;;-19.68;65.11
59829;BME280;45708;51.848;107.620;2023-01-26T18:14:26;95757.56;;;-19.69;64.51
59829;BME280;45708;51.848;107.620;2023-01-26T18:19:27;95753.56;;;-19.81;64.87
59829;BME280;45708;51.848;107.620;2023-01-26T18:24:28;95750.41;;;-19.95;65.19
59829;BME280;45708;51.848;107.620;2023-01-26T18:29:29;95753.09;;;-20.07;64.74
59829;BME280;45708;51.848;107.620;2023-01-26T18:34:29;95752.44;;;-20.18;65.03
59829;BME280;45708;51.848;107.620;2023-01-26T18:39:30;95750.75;;;-20.19;64.91
59829;BME280;45708;51.848;107.620;2023-01-26T18:44:31;95760.53;;;-19.99;64.65
59829;BME280;45708;51.848;107.620;2023-01-26T18:49:32;95746.97;;;-19.88;64.49
59829;BME280;45708;51.848;107.620;2023-01-26T18:54:33;95738.50;;;-19.84;63.90
59829;BME280;45708;51.848;107.620;2023-01-26T18:59:34;95750.22;;;-19.80;64.26
59829;BME280;45708;51.848;107.620;2023-01-26T19:04:34;95745.19;;;-19.80;63.55
59829;BME280;45708;51.848;107.620;2023-01-26T19:09:35;95744.31;;;-19.77;63.73
59829;BME280;45708;51.848;107.620;2023-01-26T19:14:37;95745.13;;;-19.77;63.63
59829;BME280;45708;51.848;107.620;2023-01-26T19:19:37;95741.59;;;-19.66;63.98
59829;BME280;45708;51.848;107.620;2023-01-26T19:24:38;95738.13;;;-19.56;63.74
59829;BME280;45708;51.848;107.620;2023-01-26T19:29:39;95737.88;;;-19.44;63.07
59829;BME280;45708;51.848;107.620;2023-01-26T19:34:40;95736.78;;;-19.29;62.65
59829;BME280;45708;51.848;107.620;2023-01-26T19:39:41;95738.41;;;-19.27;63.46
59829;BME280;45708;51.848;107.620;2023-01-26T19:44:41;95726.59;;;-19.22;62.46
59829;BME280;45708;51.848;107.620;2023-01-26T19:49:42;95730.78;;;-19.22;62.20
59829;BME280;45708;51.848;107.620;2023-01-26T19:54:43;95719.16;;;-19.28;62.49
59829;BME280;45708;51.848;107.620;2023-01-26T19:59:44;95712.41;;;-19.26;62.95
59829;BME280;45708;51.848;107.620;2023-01-26T20:04:45;95715.78;;;-19.27;62.45
59829;BME280;45708;51.848;107.620;2023-01-26T20:09:45;95717.28;;;-19.17;61.94
59829;BME280;45708;51.848;107.620;2023-01-26T20:14:46;95716.53;;;-19.23;61.94
59829;BME280;45708;51.848;107.620;2023-01-26T20:19:47;95717.44;;;-19.26;62.79
59829;BME280;45708;51.848;107.620;2023-01-26T20:24:48;95713.97;;;-19.19;61.83
59829;BME280;45708;51.848;107.620;2023-01-26T20:29:49;95703.88;;;-19.17;61.78
59829;BME280;45708;51.848;107.620;2023-01-26T20:34:50;95698.81;;;-19.16;61.83
59829;BME280;45708;51.848;107.620;2023-01-26T20:39:50;95701.28;;;-19.14;60.95
59829;BME280;45708;51.848;107.620;2023-01-26T20:44:51;95679.41;;;-19.11;61.69
59829;BME280;45708;51.848;107.620;2023-01-26T20:49:52;95673.72;;;-19.20;60.66
59829;BME280;45708;51.848;107.620;2023-01-26T20:54:53;95675.25;;;-19.13;61.22
59829;BME280;45708;51.848;107.620;2023-01-26T21:00:05;95667.00;;;-19.20;60.97
59829;BME280;45708;51.848;107.620;2023-01-26T21:05:07;95675.56;;;-19.30;61.65
59829;BME280;45708;51.848;107.620;2023-01-26T21:10:08;95669.78;;;-19.35;60.64
59829;BME280;45708;51.848;107.620;2023-01-26T21:15:09;95674.06;;;-19.40;60.83
59829;BME280;45708;51.848;107.620;2023-01-26T21:20:11;95665.63;;;-19.36;60.71
59829;BME280;45708;51.848;107.620;2023-01-26T21:25:12;95652.38;;;-19.47;60.54
59829;BME280;45708;51.848;107.620;2023-01-26T21:30:13;95653.22;;;-19.48;60.90
59829;BME280;45708;51.848;107.620;2023-01-26T21:35:14;95643.13;;;-19.47;60.89
59829;BME280;45708;51.848;107.620;2023-01-26T21:40:15;95645.63;;;-19.45;60.57
59829;BME280;45708;51.848;107.620;2023-01-26T21:45:16;95638.66;;;-19.31;60.83
59829;BME280;45708;51.848;107.620;2023-01-26T21:50:17;95638.47;;;-19.19;60.95
59829;BME280;45708;51.848;107.620;2023-01-26T21:55:17;95637.53;;;-19.15;61.27
59829;BME280;45708;51.848;107.620;2023-01-26T22:00:18;95635.59;;;-19.00;60.35
59829;BME280;45708;51.848;107.620;2023-01-26T22:05:19;95644.00;;;-19.01;60.52
59829;BME280;45708;51.848;107.620;2023-01-26T22:10:20;95645.69;;;-19.03;60.68
59829;BME280;45708;51.848;107.620;2023-01-26T22:15:21;95635.53;;;-18.97;61.32
59829;BME280;45708;51.848;107.620;2023-01-26T22:20:22;95637.03;;;-18.89;60.23
59829;BME280;45708;51.848;107.620;2023-01-26T22:25:23;95626.94;;;-18.89;61.08
59829;BME280;45708;51.848;107.620;2023-01-26T22:30:23;95632.88;;;-18.91;60.41
59829;BME280;45708;51.848;107.620;2023-01-26T22:35:27;95614.31;;;-18.87;60.36
59829;BME280;45708;51.848;107.620;2023-01-26T22:40:28;95605.94;;;-18.88;61.45
59829;BME280;45708;51.848;107.620;2023-01-26T22:45:29;95599.38;;;-18.95;61.11
59829;BME280;45708;51.848;107.620;2023-01-26T22:50:29;95615.38;;;-18.97;60.83
59829;BME280;45708;51.848;107.620;2023-01-26T22:55:30;95620.59;;;-19.06;61.76
59829;BME280;45708;51.848;107.620;2023-01-26T23:00:31;95596.56;;;-19.23;61.04
59829;BME280;45708;51.848;107.620;2023-01-26T23:05:33;95607.47;;;-19.24;61.23
59829;BME280;45708;51.848;107.620;2023-01-26T23:10:33;95608.34;;;-19.25;61.05
59829;BME280;45708;51.848;107.620;2023-01-26T23:15:36;95594.75;;;-19.15;60.94
59829;BME280;45708;51.848;107.620;2023-01-26T23:20:37;95598.34;;;-19.28;61.00
59829;BME280;45708;51.848;107.620;2023-01-26T23:25:38;95589.00;;;-19.23;60.91
59829;BME280;45708;51.848;107.620;2023-01-26T23:30:39;95584.84;;;-19.24;60.66
59829;BME280;45708;51.848;107.620;2023-01-26T23:35:40;95573.78;;;-19.15;61.37
59829;BME280;45708;51.848;107.620;2023-01-26T23:40:42;95572.56;;;-18.97;60.31
59829;BME280;45708;51.848;107.620;2023-01-26T23:45:44;95562.53;;;-18.99;59.62
59829;BME280;45708;51.848;107.620;2023-01-26T23:50:45;95563.56;;;-19.09;60.90
59829;BME280;45708;51.848;107.620;2023-01-26T23:55:46;95561.44;;;-19.29;60.45
